This is the latest recevied weather packets stored in our database for station/object KB6HGN. If no packets are shown the sender has not sent any weather packets the latest 10 day(s).
| Time | Temp. | Humidity | Pressure | Rain* | Wind** | Luminosity | Snow |
|---|---|---|---|---|---|---|---|
| 1777878005 | 15° C | 70% | 1015.2 hPa | 0 mm | - | 0 W/m² | - |
| 1777876504 | 15° C | 69% | 1015.2 hPa | 0 mm | - | 0 W/m² | - |
| 1777876204 | 14.44° C | 69% | 1015.1 hPa | 0 mm | - | 0 W/m² | - |
| 1777874105 | 15° C | 68% | 1014.5 hPa | 0 mm | - | 0 W/m² | - |
| 1777873205 | 15° C | 68% | 1014.9 hPa | 0 mm | - | 0 W/m² | - |
| 1777872605 | 15° C | 67% | 1014.9 hPa | 0 mm | - | 0 W/m² | - |
| 1777866005 | 16.11° C | 63% | 1014.2 hPa | 0 mm | - | 0 W/m² | - |
| 1777864205 | 16.67° C | 60% | 1014.2 hPa | 0 mm | - | 0 W/m² | - |
| 1777862705 | 16.67° C | 59% | 1013.5 hPa | 0 mm | - | 0 W/m² | - |
| 1777862105 | 16.67° C | 59% | 1013.5 hPa | 0 mm | - | 0 W/m² | - |
| 1777861504 | 17.22° C | 58% | 1013.2 hPa | 0 mm | - | 0 W/m² | - |
| 1777861204 | 17.22° C | 57% | 1013.2 hPa | 0 mm | - | 0 W/m² | - |
| 1777860004 | 17.78° C | 54% | 1013 hPa | 0 mm | - | 6 W/m² | - |
| 1777859404 | 18.33° C | 53% | 1012.8 hPa | 0 mm | - | 12 W/m² | - |
| 1777858504 | 18.33° C | 52% | 1012.8 hPa | 0 mm | - | 46 W/m² | - |
| 1777857605 | 18.89° C | 51% | 1012.6 hPa | 0 mm | - | 119 W/m² | - |
| 1777854904 | 21.11° C | 47% | 1012.4 hPa | 0 mm | - | 305 W/m² | - |
| 1777853704 | 21.11° C | 48% | 1012.1 hPa | 0 mm | - | 385 W/m² | - |
| 1777853405 | 20.56° C | 50% | 1012.2 hPa | 0 mm | - | 411 W/m² | - |
| 1777851604 | 20.56° C | 50% | 1012.2 hPa | 0 mm | - | 497 W/m² | - |
| 1777851005 | 20.56° C | 51% | 1012.3 hPa | 0 mm | - | 528 W/m² | - |
| 1777844704 | 22.78° C | 47% | 1013.5 hPa | 0 mm | - | 793 W/m² | - |
| 1777843804 | 23.33° C | 48% | 1013.5 hPa | 0 mm | - | 857 W/m² | - |
| 1777841704 | 20.56° C | 56% | 1013.9 hPa | 0 mm | - | 917 W/m² | - |
| 1777840205 | 20° C | 59% | 1014.2 hPa | 0 mm | - | 921 W/m² | - |
* Rain latest hour (hover to see other rain measurements)
** Current wind speed in m/s (hover to see current wind gust speed)